Terminal Aerodrome Forecast
Issued by NWS Cleveland, OH

Home | Current Version | Previous Version | Graphics & Text | Print | Product List | Glossary Off
Versions: 1 2 3 4 5 6 7 8 9 10 11 12 13 14 15 16

000
FTUS41 KCLE 230500
TAFMFD
TAF
KMFD 230526Z 2306/2406 33010G18KT P6SM SCT026 OVC035
      TEMPO 2306/2310 BKN026
     FM231500 33010G18KT P6SM SKC
     FM232300 01005KT P6SM SCT250
     FM240300 VRB03KT P6SM SCT100 BKN250=

USA.gov is the U.S. government's official web portal to all federal, state and local government web resources and services.